createdAt,value
2022-09-11T00:01:33.222Z,30.60
2022-09-11T00:04:02.441Z,33.83
2022-09-11T00:06:31.980Z,31.25
2022-09-11T00:09:02.341Z,31.00
2022-09-11T00:11:32.948Z,35.88
2022-09-11T00:14:01.764Z,34.85
2022-09-11T00:16:33.913Z,31.73
2022-09-11T00:19:05.772Z,35.80
2022-09-11T00:21:36.374Z,33.17
2022-09-11T00:24:04.710Z,33.30
2022-09-11T00:26:33.215Z,34.63
2022-09-11T00:29:01.800Z,33.53
2022-09-11T00:31:31.050Z,34.13
2022-09-11T00:33:59.570Z,35.28
2022-09-11T00:36:31.095Z,33.33
2022-09-11T00:39:01.145Z,31.33
2022-09-11T00:41:31.771Z,27.65
2022-09-11T00:44:02.734Z,28.40
2022-09-11T00:46:37.124Z,31.90
2022-09-11T00:49:22.389Z,29.95
2022-09-11T00:51:55.214Z,25.90
2022-09-11T00:54:29.716Z,26.27
2022-09-11T00:56:59.569Z,27.60
2022-09-11T00:59:31.142Z,26.58
2022-09-11T01:01:59.360Z,23.35
2022-09-11T01:04:29.147Z,32.25
2022-09-11T01:06:58.441Z,34.15
2022-09-11T01:09:30.624Z,26.65
2022-09-11T01:12:06.659Z,23.35
2022-09-11T01:14:45.381Z,36.60
2022-09-11T01:17:27.794Z,27.27
2022-09-11T01:20:31.278Z,24.95
2022-09-11T01:23:26.734Z,25.20
2022-09-11T01:26:20.076Z,24.27
2022-09-11T01:28:57.664Z,25.98
2022-09-11T01:31:31.447Z,28.55
2022-09-11T01:34:03.096Z,29.15
2022-09-11T01:36:36.465Z,38.83
2022-09-11T01:39:05.956Z,31.23
2022-09-11T01:41:40.422Z,42.05
2022-09-11T01:44:13.970Z,39.80
2022-09-11T01:46:46.023Z,29.52
2022-09-11T01:49:18.512Z,31.63
2022-09-11T01:51:49.578Z,27.95
2022-09-11T01:54:21.006Z,30.42
2022-09-11T01:56:53.494Z,33.40
2022-09-11T01:59:28.585Z,31.35
2022-09-11T02:02:03.414Z,29.88
2022-09-11T02:04:37.656Z,32.20
2022-09-11T02:07:10.343Z,31.65
2022-09-11T02:09:45.943Z,32.60
2022-09-11T02:12:17.482Z,41.45
2022-09-11T02:14:51.352Z,55.50
2022-09-11T02:17:28.792Z,54.63
2022-09-11T02:20:00.170Z,49.08
2022-09-11T02:22:29.065Z,59.03
2022-09-11T02:24:57.113Z,54.60
2022-09-11T02:27:28.227Z,53.40
2022-09-11T02:29:59.361Z,58.13
2022-09-11T02:32:29.896Z,55.30
2022-09-11T02:34:58.769Z,58.47
2022-09-11T02:37:38.408Z,50.88
2022-09-11T02:40:19.454Z,53.10
2022-09-11T02:43:05.928Z,52.70
2022-09-11T02:45:45.343Z,53.10
2022-09-11T02:48:29.291Z,51.70
2022-09-11T02:51:06.277Z,51.85
2022-09-11T02:53:43.579Z,50.15
2022-09-11T02:56:16.859Z,50.35
2022-09-11T02:58:50.231Z,61.65
2022-09-11T03:01:19.772Z,65.57
2022-09-11T03:03:48.832Z,61.15
2022-09-11T03:06:20.418Z,61.60
2022-09-11T03:08:48.989Z,60.75
2022-09-11T03:11:19.978Z,66.05
2022-09-11T03:13:50.076Z,58.17
2022-09-11T03:16:20.245Z,57.60
2022-09-11T03:18:48.419Z,65.70
2022-09-11T03:21:16.878Z,54.50
2022-09-11T03:23:44.959Z,64.28
2022-09-11T03:26:13.050Z,68.32
2022-09-11T03:28:41.218Z,54.03
2022-09-11T03:31:09.767Z,53.60
2022-09-11T03:33:40.039Z,51.17
2022-09-11T03:36:11.664Z,58.22
2022-09-11T03:38:40.173Z,58.47
2022-09-11T03:41:09.279Z,50.83
2022-09-11T03:43:37.723Z,55.10
2022-09-11T03:46:07.204Z,55.88
2022-09-11T03:48:37.194Z,66.38
2022-09-11T03:51:06.862Z,55.42
2022-09-11T03:53:35.505Z,54.28
2022-09-11T03:56:06.373Z,56.15
2022-09-11T03:58:40.749Z,55.83
2022-09-11T04:01:13.912Z,70.50
2022-09-11T04:03:43.929Z,56.50
2022-09-11T04:06:20.660Z,65.70
2022-09-11T04:08:49.363Z,71.35
2022-09-11T04:11:17.645Z,62.85
2022-09-11T04:13:46.257Z,81.75
2022-09-11T04:16:18.390Z,86.60
2022-09-11T04:18:51.230Z,97.35
2022-09-11T04:21:21.271Z,96.25
2022-09-11T04:23:56.504Z,83.50
2022-09-11T04:26:27.687Z,77.13
2022-09-11T04:29:01.535Z,80.35
2022-09-11T04:31:30.103Z,86.47
2022-09-11T04:33:58.388Z,79.97
2022-09-11T04:36:32.090Z,80.78
2022-09-11T04:39:01.755Z,78.47
2022-09-11T04:41:30.761Z,74.32
2022-09-11T04:44:05.259Z,82.93
2022-09-11T04:46:36.432Z,78.93
2022-09-11T04:49:08.267Z,73.40
2022-09-11T04:51:38.994Z,87.70
2022-09-11T04:54:08.654Z,88.78
2022-09-11T04:56:38.904Z,86.78
2022-09-11T04:59:13.277Z,94.28
2022-09-11T05:01:44.573Z,78.05
2022-09-11T05:04:13.805Z,72.78
2022-09-11T05:06:48.225Z,85.20
2022-09-11T05:09:18.683Z,83.53
2022-09-11T05:11:48.736Z,69.47
2022-09-11T05:14:18.281Z,74.70
2022-09-11T05:16:48.466Z,69.15
2022-09-11T05:19:18.942Z,74.55
2022-09-11T05:21:49.242Z,68.20
2022-09-11T05:24:17.438Z,74.55
2022-09-11T05:26:45.506Z,66.22
2022-09-11T05:29:16.338Z,73.03
2022-09-11T05:31:53.466Z,65.40
2022-09-11T05:34:22.648Z,76.13
2022-09-11T05:36:53.925Z,65.72
2022-09-11T05:39:21.986Z,67.63
2022-09-11T05:41:52.305Z,74.22
2022-09-11T05:44:20.680Z,78.43
2022-09-11T05:46:49.503Z,70.20
2022-09-11T05:49:17.676Z,65.15
2022-09-11T05:51:45.675Z,73.45
2022-09-11T05:54:15.281Z,68.13
2022-09-11T05:56:43.401Z,64.38
2022-09-11T05:59:17.400Z,69.03
2022-09-11T06:01:50.169Z,69.03
2022-09-11T06:04:31.776Z,69.22
2022-09-11T06:07:01.016Z,64.07
2022-09-11T06:09:31.504Z,64.13
2022-09-11T06:12:00.838Z,69.13
2022-09-11T06:14:29.749Z,72.28
2022-09-11T06:16:57.840Z,66.13
2022-09-11T06:19:27.620Z,62.20
2022-09-11T06:21:57.396Z,64.57
2022-09-11T06:24:31.218Z,62.45
2022-09-11T06:26:59.926Z,59.08
2022-09-11T06:29:32.205Z,67.50
2022-09-11T06:32:01.810Z,59.72
2022-09-11T06:34:31.569Z,53.30
2022-09-11T06:37:02.862Z,50.95
2022-09-11T06:39:34.174Z,51.45
2022-09-11T06:42:03.386Z,47.05
2022-09-11T06:44:36.123Z,49.80
2022-09-11T06:47:05.590Z,47.50
2022-09-11T06:49:35.988Z,45.85
2022-09-11T06:52:28.037Z,44.35
2022-09-11T06:55:13.335Z,40.85
2022-09-11T06:57:44.569Z,42.28
2022-09-11T07:00:16.544Z,46.60
2022-09-11T07:02:46.086Z,43.17
2022-09-11T07:05:15.215Z,40.72
2022-09-11T07:07:48.475Z,41.33
2022-09-11T07:10:18.862Z,38.60
2022-09-11T07:12:54.811Z,39.33
2022-09-11T07:15:23.470Z,37.95
2022-09-11T07:17:51.497Z,38.20
2022-09-11T07:20:20.721Z,41.33
2022-09-11T07:22:48.884Z,42.03
2022-09-11T07:25:20.451Z,37.15
2022-09-11T07:27:48.693Z,40.28
2022-09-11T07:30:17.016Z,38.20
2022-09-11T07:32:49.808Z,40.35
2022-09-11T07:35:21.633Z,42.13
2022-09-11T07:37:51.980Z,41.38
2022-09-11T07:40:25.628Z,37.80
2022-09-11T07:42:54.276Z,41.17
2022-09-11T07:45:23.141Z,40.83
2022-09-11T07:47:52.146Z,37.20
2022-09-11T07:50:24.282Z,39.00
2022-09-11T07:52:52.626Z,36.22
2022-09-11T07:55:21.572Z,33.00
2022-09-11T07:57:54.043Z,36.30
2022-09-11T08:00:24.349Z,32.22
2022-09-11T08:03:01.469Z,36.13
2022-09-11T08:05:34.780Z,35.55
2022-09-11T08:08:03.221Z,32.22
2022-09-11T08:10:33.504Z,31.92
2022-09-11T08:13:07.869Z,33.28
2022-09-11T08:15:38.601Z,30.90
2022-09-11T08:18:08.520Z,28.23
2022-09-11T08:20:36.524Z,30.67
2022-09-11T08:23:04.578Z,29.65
2022-09-11T08:25:32.680Z,26.80
2022-09-11T08:28:02.959Z,27.35
2022-09-11T08:30:32.792Z,27.90
2022-09-11T08:33:01.346Z,32.03
2022-09-11T08:35:29.544Z,25.95
2022-09-11T08:37:58.863Z,26.00
2022-09-11T08:40:29.318Z,24.90
2022-09-11T08:43:03.590Z,29.27
2022-09-11T08:45:35.704Z,27.48
2022-09-11T08:48:06.989Z,26.63
2022-09-11T08:50:39.961Z,28.35
2022-09-11T08:53:15.141Z,30.02
2022-09-11T08:55:47.838Z,27.83
2022-09-11T08:58:29.031Z,29.95
2022-09-11T09:01:09.326Z,25.15
2022-09-11T09:03:53.990Z,32.40
2022-09-11T09:06:44.481Z,24.05
2022-09-11T09:09:19.676Z,27.70
2022-09-11T09:11:56.739Z,23.85
2022-09-11T09:14:48.760Z,24.05
2022-09-11T09:17:20.850Z,25.15
2022-09-11T09:19:56.677Z,22.88
2022-09-11T09:22:31.978Z,22.27
2022-09-11T09:25:04.624Z,24.75
2022-09-11T09:27:37.673Z,23.30
2022-09-11T09:30:15.128Z,25.58
2022-09-11T09:32:48.523Z,24.85
2022-09-11T09:35:23.197Z,23.73
2022-09-11T09:37:51.461Z,26.98
2022-09-11T09:40:19.914Z,29.50
2022-09-11T09:43:10.969Z,23.90
2022-09-11T09:45:56.706Z,22.83
2022-09-11T09:48:25.394Z,22.17
2022-09-11T09:50:53.489Z,21.48
2022-09-11T09:53:30.332Z,24.90
2022-09-11T09:56:01.023Z,21.33
2022-09-11T09:58:33.547Z,22.65
2022-09-11T10:01:03.162Z,24.83
2022-09-11T10:03:31.205Z,23.80
2022-09-11T10:06:00.180Z,23.42
2022-09-11T10:08:33.619Z,23.25
2022-09-11T10:11:03.773Z,25.23
2022-09-11T10:13:33.893Z,21.73
2022-09-11T10:16:05.774Z,20.67
2022-09-11T10:18:38.506Z,21.65
2022-09-11T10:21:17.269Z,22.98
2022-09-11T10:23:47.856Z,23.27
2022-09-11T10:26:17.794Z,25.83
2022-09-11T10:28:47.085Z,24.17
2022-09-11T10:31:17.606Z,26.15
2022-09-11T10:33:51.357Z,26.85
2022-09-11T10:36:24.411Z,26.40
2022-09-11T10:38:52.982Z,26.58
2022-09-11T10:41:23.309Z,31.92
2022-09-11T10:43:56.517Z,23.70
2022-09-11T10:46:31.602Z,26.35
2022-09-11T10:49:09.068Z,27.10
2022-09-11T10:51:38.961Z,26.17
2022-09-11T10:54:15.379Z,26.85
2022-09-11T10:56:54.587Z,26.85
2022-09-11T10:59:31.941Z,23.40
2022-09-11T11:02:03.174Z,27.52
2022-09-11T11:04:33.340Z,26.15
2022-09-11T11:07:08.268Z,28.55
2022-09-11T11:09:48.251Z,27.25
2022-09-11T11:12:32.972Z,26.75
2022-09-11T11:15:34.348Z,27.17
2022-09-11T11:18:26.458Z,23.83
2022-09-11T11:21:07.014Z,29.58
2022-09-11T11:23:51.732Z,27.52
2022-09-11T11:26:33.495Z,26.60
2022-09-11T11:29:24.573Z,28.30
2022-09-11T11:32:05.525Z,24.80
2022-09-11T11:34:56.965Z,26.48
2022-09-11T11:37:29.482Z,24.77
2022-09-11T11:40:03.285Z,20.60
2022-09-11T11:42:36.376Z,19.85
2022-09-11T11:45:11.569Z,20.25
2022-09-11T11:47:42.791Z,19.85
2022-09-11T11:50:31.855Z,20.60
2022-09-11T11:53:06.291Z,17.00
2022-09-11T11:55:46.907Z,18.17
2022-09-11T11:58:22.332Z,20.20
2022-09-11T12:00:58.031Z,17.45
2022-09-11T12:03:30.776Z,14.38
2022-09-11T12:06:00.220Z,15.18
2022-09-11T12:08:28.542Z,13.95
2022-09-11T12:11:00.047Z,14.80
2022-09-11T12:13:33.365Z,14.50
2022-09-11T12:16:14.826Z,14.88
2022-09-11T12:19:01.420Z,12.13
2022-09-11T12:21:59.537Z,11.38
2022-09-11T12:24:54.911Z,13.70
2022-09-11T12:27:53.024Z,15.20
2022-09-11T12:30:24.872Z,16.77
2022-09-11T12:32:54.810Z,14.65
2022-09-11T12:35:32.332Z,15.13
2022-09-11T12:38:17.755Z,13.35
2022-09-11T12:40:53.194Z,12.93
2022-09-11T12:43:47.548Z,14.40
2022-09-11T12:46:48.766Z,13.10
2022-09-11T12:49:22.707Z,14.20
2022-09-11T12:51:56.225Z,16.13
2022-09-11T12:54:29.142Z,16.45
2022-09-11T12:57:03.143Z,18.45
2022-09-11T12:59:34.193Z,15.43
2022-09-11T13:02:05.575Z,15.10
2022-09-11T13:04:34.849Z,14.23
2022-09-11T13:07:05.319Z,14.23
2022-09-11T13:09:38.486Z,12.40
2022-09-11T13:12:48.936Z,11.52
2022-09-11T13:15:39.069Z,10.98
2022-09-11T13:18:32.783Z,9.85
2022-09-11T13:21:14.312Z,12.50
2022-09-11T13:23:43.368Z,10.60
2022-09-11T13:26:22.437Z,9.77
2022-09-11T13:28:52.194Z,9.38
2022-09-11T13:31:26.150Z,10.02
2022-09-11T13:33:55.138Z,12.18
2022-09-11T13:36:25.693Z,10.85
2022-09-11T13:38:57.116Z,11.63
2022-09-11T13:41:30.213Z,8.80
2022-09-11T13:44:00.512Z,11.63
2022-09-11T13:46:31.347Z,11.32
2022-09-11T13:49:15.049Z,11.60
2022-09-11T13:51:46.055Z,12.02
2022-09-11T13:54:16.753Z,13.95
2022-09-11T13:57:06.560Z,15.60
2022-09-11T13:59:42.959Z,13.00
2022-09-11T14:02:40.504Z,14.02
2022-09-11T14:05:16.014Z,15.88
2022-09-11T14:07:55.945Z,15.68
2022-09-11T14:10:31.413Z,14.05
2022-09-11T14:13:06.217Z,15.20
2022-09-11T14:15:40.535Z,15.75
2022-09-11T14:18:14.983Z,12.93
2022-09-11T14:20:45.798Z,11.43
2022-09-11T14:23:21.094Z,10.20
2022-09-11T14:26:09.894Z,10.48
2022-09-11T14:28:48.409Z,9.50
2022-09-11T14:31:37.750Z,9.65
2022-09-11T14:34:17.842Z,9.00
2022-09-11T14:36:50.160Z,9.93
2022-09-11T14:39:26.661Z,11.80
2022-09-11T14:41:55.645Z,8.52
2022-09-11T14:44:26.885Z,7.82
2022-09-11T14:46:57.579Z,7.35
2022-09-11T14:49:25.731Z,6.05
2022-09-11T14:51:58.149Z,10.93
2022-09-11T14:54:27.708Z,8.05
2022-09-11T14:56:55.926Z,8.02
2022-09-11T14:59:25.394Z,6.03
2022-09-11T15:01:53.486Z,7.45
2022-09-11T15:04:23.823Z,7.07
2022-09-11T15:06:55.393Z,8.35
2022-09-11T15:09:23.767Z,9.80
2022-09-11T15:11:52.967Z,9.32
2022-09-11T15:14:44.665Z,9.38
2022-09-11T15:17:14.635Z,10.70
2022-09-11T15:19:45.728Z,10.13
2022-09-11T15:22:14.294Z,10.55
2022-09-11T15:24:42.640Z,11.95
2022-09-11T15:27:10.966Z,11.35
2022-09-11T15:29:39.759Z,12.80
2022-09-11T15:32:09.756Z,9.55
2022-09-11T15:34:41.987Z,12.73
2022-09-11T15:37:10.841Z,12.38
2022-09-11T15:39:38.944Z,9.25
2022-09-11T15:42:08.351Z,8.65
2022-09-11T15:44:37.751Z,9.05
2022-09-11T15:47:06.154Z,8.43
2022-09-11T15:49:39.230Z,8.18
2022-09-11T15:52:09.929Z,8.07
2022-09-11T15:54:38.160Z,9.15
2022-09-11T15:57:06.269Z,7.72
2022-09-11T15:59:34.420Z,9.25
2022-09-11T16:02:03.057Z,9.00
2022-09-11T16:04:32.608Z,9.43
2022-09-11T16:07:00.638Z,10.15
2022-09-11T16:09:32.375Z,9.65
2022-09-11T16:12:02.110Z,11.32
2022-09-11T16:14:32.743Z,10.70
2022-09-11T16:17:02.949Z,8.88
2022-09-11T16:19:31.705Z,7.75
2022-09-11T16:22:02.116Z,7.20
2022-09-11T16:24:37.606Z,7.72
2022-09-11T16:27:08.514Z,7.30
2022-09-11T16:30:20.355Z,8.38
2022-09-11T16:32:37.340Z,6.72
2022-09-11T16:35:06.715Z,8.52
2022-09-11T16:37:35.345Z,9.82
2022-09-11T16:40:05.660Z,9.95
2022-09-11T16:42:33.870Z,11.63
2022-09-11T16:45:02.608Z,10.73
2022-09-11T16:47:31.969Z,10.68
2022-09-11T16:50:08.421Z,10.40
2022-09-11T16:52:37.023Z,10.55
2022-09-11T16:55:07.602Z,10.18
2022-09-11T16:57:35.771Z,10.10
2022-09-11T17:00:05.192Z,11.98
2022-09-11T17:02:33.398Z,14.57
2022-09-11T17:05:02.166Z,12.02
2022-09-11T17:07:30.290Z,11.45
2022-09-11T17:09:58.714Z,10.63
2022-09-11T17:12:28.306Z,13.10
2022-09-11T17:14:56.338Z,14.13
2022-09-11T17:17:25.273Z,10.88
2022-09-11T17:19:54.026Z,9.43
2022-09-11T17:22:21.985Z,10.75
2022-09-11T17:24:49.983Z,12.50
2022-09-11T17:27:18.067Z,13.13
2022-09-11T17:29:47.811Z,11.50
2022-09-11T17:32:29.081Z,14.93
2022-09-11T17:34:58.422Z,10.00
2022-09-11T17:37:27.053Z,8.38
2022-09-11T17:39:55.507Z,8.88
2022-09-11T17:42:23.811Z,8.98
2022-09-11T17:44:53.301Z,11.18
2022-09-11T17:47:21.330Z,9.15
2022-09-11T17:49:49.895Z,9.45
2022-09-11T17:52:18.980Z,9.43
2022-09-11T17:54:47.327Z,9.73
2022-09-11T17:57:15.908Z,10.73
2022-09-11T17:59:44.582Z,9.40
2022-09-11T18:02:15.007Z,11.40
2022-09-11T18:04:44.192Z,12.40
2022-09-11T18:07:12.282Z,9.30
2022-09-11T18:09:40.701Z,9.65
2022-09-11T18:12:08.878Z,11.75
2022-09-11T18:14:38.735Z,13.35
2022-09-11T18:17:07.095Z,13.98
2022-09-11T18:19:38.842Z,12.98
2022-09-11T18:22:09.608Z,16.00
2022-09-11T18:24:39.836Z,12.55
2022-09-11T18:27:09.764Z,12.45
2022-09-11T18:29:39.930Z,10.85
2022-09-11T18:32:10.120Z,9.57
2022-09-11T18:34:39.918Z,11.90
2022-09-11T18:37:08.557Z,11.13
2022-09-11T18:39:38.291Z,12.13
2022-09-11T18:42:07.409Z,10.70
2022-09-11T18:44:35.825Z,13.27
2022-09-11T18:47:03.889Z,12.35
2022-09-11T18:49:32.154Z,13.65
2022-09-11T18:52:02.046Z,11.00
2022-09-11T18:54:31.513Z,14.38
2022-09-11T18:57:00.183Z,13.10
2022-09-11T18:59:28.656Z,14.98
2022-09-11T19:01:57.128Z,13.95
2022-09-11T19:04:26.009Z,12.13
2022-09-11T19:06:53.982Z,11.82
2022-09-11T19:09:23.324Z,12.88
2022-09-11T19:11:52.339Z,14.25
2022-09-11T19:14:21.002Z,13.13
2022-09-11T19:16:49.198Z,17.55
2022-09-11T19:19:17.290Z,13.18
2022-09-11T19:21:45.901Z,13.82
2022-09-11T19:24:13.940Z,14.65
2022-09-11T19:26:45.108Z,11.15
2022-09-11T19:29:15.715Z,14.02
2022-09-11T19:31:43.883Z,15.32
2022-09-11T19:34:13.073Z,14.20
2022-09-11T19:36:41.979Z,12.15
2022-09-11T19:39:12.236Z,15.52
2022-09-11T19:41:41.120Z,12.57
2022-09-11T19:44:13.971Z,14.10
2022-09-11T19:46:42.852Z,17.90
2022-09-11T19:49:11.720Z,14.32
2022-09-11T19:51:41.888Z,18.02
2022-09-11T19:54:11.728Z,16.58
2022-09-11T19:56:40.078Z,18.23
2022-09-11T19:59:10.836Z,16.80
2022-09-11T20:01:39.051Z,17.20
2022-09-11T20:04:07.141Z,13.32
2022-09-11T20:06:36.247Z,13.50
2022-09-11T20:09:30.811Z,17.80
2022-09-11T20:11:53.782Z,15.27
2022-09-11T20:14:23.268Z,12.43
2022-09-11T20:16:51.266Z,12.27
2022-09-11T20:19:20.530Z,14.35
2022-09-11T20:21:48.589Z,12.52
2022-09-11T20:24:17.107Z,13.80
2022-09-11T20:26:45.151Z,13.40
2022-09-11T20:29:15.526Z,14.65
2022-09-11T20:31:47.826Z,19.58
2022-09-11T20:34:17.270Z,23.58
2022-09-11T20:36:45.362Z,14.23
2022-09-11T20:39:15.021Z,15.68
2022-09-11T20:41:43.358Z,16.27
2022-09-11T20:44:11.401Z,15.10
2022-09-11T20:46:39.497Z,14.82
2022-09-11T20:49:08.921Z,14.43
2022-09-11T20:51:36.986Z,15.15
2022-09-11T20:54:05.108Z,17.35
2022-09-11T20:56:34.345Z,16.27
2022-09-11T20:59:02.368Z,15.65
2022-09-11T21:01:33.053Z,14.45
2022-09-11T21:04:03.308Z,12.93
2022-09-11T21:06:34.142Z,14.50
2022-09-11T21:09:04.661Z,14.43
2022-09-11T21:11:33.058Z,15.80
2022-09-11T21:14:01.959Z,16.05
2022-09-11T21:16:30.092Z,15.00
2022-09-11T21:19:00.307Z,16.20
2022-09-11T21:21:29.622Z,13.35
2022-09-11T21:24:02.185Z,17.73
2022-09-11T21:26:31.366Z,13.75
2022-09-11T21:29:01.544Z,14.40
2022-09-11T21:31:30.458Z,15.90
2022-09-11T21:33:58.933Z,15.05
2022-09-11T21:36:27.318Z,20.10
2022-09-11T21:38:55.333Z,19.77
2022-09-11T21:41:24.798Z,16.33
2022-09-11T21:43:52.781Z,14.73
2022-09-11T21:46:20.879Z,13.88
2022-09-11T21:48:48.976Z,11.25
2022-09-11T21:51:19.960Z,14.23
2022-09-11T21:53:49.518Z,14.85
2022-09-11T21:56:19.754Z,11.32
2022-09-11T21:58:51.042Z,14.70
2022-09-11T22:01:19.977Z,11.65
2022-09-11T22:03:48.111Z,14.05
2022-09-11T22:06:16.714Z,14.25
2022-09-11T22:08:47.146Z,17.10
2022-09-11T22:11:16.740Z,21.02
2022-09-11T22:13:45.105Z,19.02
2022-09-11T22:16:16.779Z,16.88
2022-09-11T22:18:47.637Z,19.02
2022-09-11T22:21:15.936Z,14.65
2022-09-11T22:23:44.000Z,14.07
2022-09-11T22:26:13.925Z,14.18
2022-09-11T22:28:42.461Z,15.43
2022-09-11T22:31:11.507Z,14.88
2022-09-11T22:33:42.987Z,17.17
2022-09-11T22:36:13.647Z,15.82
2022-09-11T22:38:42.839Z,16.90
2022-09-11T22:41:11.137Z,18.42
2022-09-11T22:43:39.535Z,16.20
2022-09-11T22:46:07.941Z,18.85
2022-09-11T22:48:36.872Z,16.38
2022-09-11T22:51:06.313Z,18.90
2022-09-11T22:53:34.327Z,17.13
2022-09-11T22:56:03.046Z,21.15
2022-09-11T22:58:31.584Z,14.13
2022-09-11T23:01:02.420Z,16.95
2022-09-11T23:03:30.480Z,17.00
2022-09-11T23:06:16.801Z,14.48
2022-09-11T23:08:47.348Z,16.20
2022-09-11T23:11:17.429Z,14.93
2022-09-11T23:13:47.629Z,12.75
2022-09-11T23:16:17.585Z,20.80
2022-09-11T23:18:45.966Z,20.17
2022-09-11T23:21:14.837Z,17.98
2022-09-11T23:23:44.743Z,20.20
2022-09-11T23:26:15.121Z,17.63
2022-09-11T23:28:43.212Z,21.38
2022-09-11T23:31:12.330Z,19.73
2022-09-11T23:33:40.541Z,17.13
2022-09-11T23:36:10.334Z,17.02
2022-09-11T23:38:38.940Z,19.58
2022-09-11T23:41:07.350Z,22.05
2022-09-11T23:43:36.718Z,27.65
2022-09-11T23:46:04.738Z,17.67
2022-09-11T23:48:32.755Z,27.80
2022-09-11T23:51:01.340Z,21.48
2022-09-11T23:53:29.804Z,41.22
2022-09-11T23:55:59.142Z,23.83
2022-09-11T23:58:27.362Z,35.85
